CheckWX is a tool to help pilots better visualize weather data.  It is not intended as a substitute for an official pre-flight weather briefing.

06:14:37 UTC

KDUX METAR
Moore County Airport
Dumas, Texas, USA
Current

20 mins ago

KDUX 230555Z AUTO 34007KT 10SM -RA OVC075 10/10 A3014 RMK AO2 60007 T01000095 10146 20096 401740080
Observed
Apr-23 @ 05:55 UTC
Wind
  • 340° at 7 KTS
Visibility
10 SM
Flight Rules
VFR
Conditions
Light Rain
Cloud Levels
  • Overcast at 7,500' AGL
Temperature
10°C / 50°F
Dewpoint
10°C / 50°F
Humidity
100%
Altimeter
30.14" Hg
Pressure
1020.62 hPa
Previous

40 mins ago

KDUX 230535Z AUTO 34007KT 10SM BKN075 10/09 A3014 RMK AO2 T00970094
Observed
Apr-23 @ 05:35 UTC
Wind
  • 340° at 7 KTS
Visibility
10 SM
Flight Rules
VFR
Cloud Levels
  • Broken at 7,500' AGL
Temperature
10°C / 50°F
Dewpoint
C / 48°F
Humidity
94%
Altimeter
30.14" Hg
Pressure
1020.62 hPa
Previous

60 mins ago

KDUX 230515Z AUTO 35006KT 10SM BKN075 10/09 A3014 RMK AO2 T00970093
Observed
Apr-23 @ 05:15 UTC
Wind
  • 350° at 6 KTS
Visibility
10 SM
Flight Rules
VFR
Cloud Levels
  • Broken at 7,500' AGL
Temperature
10°C / 50°F
Dewpoint
C / 48°F
Humidity
94%
Altimeter
30.14" Hg
Pressure
1020.62 hPa